Time;durP1;ratioP1;P1;durP2;ratioP2;P2;SDS_P1;SDS_P2;PMS_P1;PMS_P2;Temp;Humidity;BMP_temperature;BMP_pressure;BME280_temperature;BME280_humidity;BME280_pressure;Samples;Min_cycle;Max_cycle;Signal;HPM_P1;HPM_P2
2023/07/11 00:01:18;;;;;;;;;;;;;;;28.70;39.94;100891.94;102984;1285;60863;-82
2023/07/11 00:03:44;;;;;;;;;;;;;;;28.70;40.00;100892.82;103117;1285;62158;-82
2023/07/11 00:06:12;;;;;;;;;;;;;;;28.70;39.93;100891.57;102980;1284;61004;-82
2023/07/11 00:08:38;;;;;;;;;;;;;;;28.70;40.07;100886.33;102939;1289;67815;-82
2023/07/11 00:11:05;;;;;;;;;;;;;;;28.70;39.98;100886.16;103080;1284;62219;-82
2023/07/11 00:13:32;;;;;;;;;;;;;;;28.70;40.06;100886.34;103012;1284;60820;-82
2023/07/11 00:16:19;;;;;;;;;;;;;;;28.70;40.06;100891.43;103093;1284;64613;-82
2023/07/11 00:18:45;;;;;;;;;;;;;;;28.69;39.99;100892.53;102949;1287;66753;-82
2023/07/11 00:21:10;;;;;;;;;;;;;;;28.69;40.14;100891.66;103232;1288;62245;-82
2023/07/11 00:23:35;;;;;;;;;;;;;;;28.68;40.04;100894.27;103070;1284;60841;-82
2023/07/11 00:26:02;;;;;;;;;;;;;;;28.69;40.19;100897.67;102916;1287;62962;-82
2023/07/11 00:28:27;;;;;;;;;;;;;;;28.68;40.26;100899.51;102919;1284;62111;-82
2023/07/11 00:30:53;;;;;;;;;;;;;;;28.68;40.12;100899.53;103186;1287;62165;-82
2023/07/11 00:33:19;;;;;;;;;;;;;;;28.68;40.14;100898.81;103067;1284;62852;-82
2023/07/11 00:35:45;;;;;;;;;;;;;;;28.69;40.21;100898.95;103024;1285;60883;-82
2023/07/11 00:38:12;;;;;;;;;;;;;;;28.68;40.39;100891.73;103005;1284;62935;-82
2023/07/11 00:40:44;;;;;;;;;;;;;;;28.68;40.29;100884.19;103229;1288;60873;-82
2023/07/11 00:43:11;;;;;;;;;;;;;;;28.68;40.31;100880.02;103036;1284;62133;-82
2023/07/11 00:45:55;;;;;;;;;;;;;;;28.68;40.13;100883.64;103035;1284;60772;-82
2023/07/11 00:48:20;;;;;;;;;;;;;;;28.67;40.18;100884.04;103091;1284;63726;-82
2023/07/11 00:50:47;;;;;;;;;;;;;;;28.68;40.24;100888.17;102949;1286;62135;-82
2023/07/11 00:53:12;;;;;;;;;;;;;;;28.67;40.25;100884.98;103070;1284;60085;-82
2023/07/11 00:55:37;;;;;;;;;;;;;;;28.67;40.37;100886.77;103170;1285;63001;-82
2023/07/11 00:58:03;;;;;;;;;;;;;;;28.67;40.24;100888.27;103184;1285;60843;-82
2023/07/11 01:00:28;;;;;;;;;;;;;;;28.67;40.34;100889.19;103127;1284;62187;-82
2023/07/11 01:02:54;;;;;;;;;;;;;;;28.68;40.50;100888.95;102950;1287;60841;-82
2023/07/11 01:05:19;;;;;;;;;;;;;;;28.67;40.63;100883.04;103108;1284;63082;-82
2023/07/11 01:07:45;;;;;;;;;;;;;;;28.66;40.32;100883.59;102984;1284;60964;-82
2023/07/11 01:10:10;;;;;;;;;;;;;;;28.67;40.36;100883.20;103079;1290;62211;-82
2023/07/11 01:12:35;;;;;;;;;;;;;;;28.67;40.54;100879.95;103037;1285;63908;-82
2023/07/11 01:15:01;;;;;;;;;;;;;;;28.66;40.41;100876.54;102980;1284;62337;-82
2023/07/11 01:17:30;;;;;;;;;;;;;;;28.67;40.38;100877.09;103180;1284;60914;-82
2023/07/11 01:19:57;;;;;;;;;;;;;;;28.66;40.64;100872.22;102940;1290;62173;-82
2023/07/11 01:22:23;;;;;;;;;;;;;;;28.66;40.60;100871.14;102998;1285;61966;-82
2023/07/11 01:24:49;;;;;;;;;;;;;;;28.66;40.65;100862.66;103066;1288;62194;-82
2023/07/11 01:27:15;;;;;;;;;;;;;;;28.66;40.43;100859.77;103194;1284;62968;-82
2023/07/11 01:29:41;;;;;;;;;;;;;;;28.66;40.40;100859.08;102951;1285;62140;-82
2023/07/11 01:32:07;;;;;;;;;;;;;;;28.66;40.50;100861.56;102969;1284;62050;-82
2023/07/11 01:34:32;;;;;;;;;;;;;;;28.65;40.42;100858.57;103050;1287;62208;-82
2023/07/11 01:36:58;;;;;;;;;;;;;;;28.66;40.53;100859.79;103056;1284;62221;-83
2023/07/11 01:39:23;;;;;;;;;;;;;;;28.65;40.60;100861.45;103006;1284;60873;-82
2023/07/11 01:41:48;;;;;;;;;;;;;;;28.66;40.79;100859.79;102987;1284;63117;-82
2023/07/11 01:44:14;;;;;;;;;;;;;;;28.65;40.48;100856.77;102950;1286;60979;-82
2023/07/11 01:46:39;;;;;;;;;;;;;;;28.65;40.59;100859.85;103047;1284;62231;-82
2023/07/11 01:49:05;;;;;;;;;;;;;;;28.65;40.69;100862.55;103129;1283;62162;-82
2023/07/11 01:51:31;;;;;;;;;;;;;;;28.65;40.71;100862.20;103026;1284;62200;-82
2023/07/11 01:53:56;;;;;;;;;;;;;;;28.65;40.76;100859.52;103048;1284;62981;-82
2023/07/11 01:56:21;;;;;;;;;;;;;;;28.65;40.61;100862.56;103219;1284;62240;-82
2023/07/11 01:58:47;;;;;;;;;;;;;;;28.65;40.70;100865.86;102989;1284;60859;-82
2023/07/11 02:01:12;;;;;;;;;;;;;;;28.65;40.68;100866.17;103013;1284;63068;-82
2023/07/11 02:03:38;;;;;;;;;;;;;;;28.65;40.68;100868.41;103058;1284;60879;-82
2023/07/11 02:06:03;;;;;;;;;;;;;;;28.65;40.72;100869.29;102960;1286;62270;-82
2023/07/11 02:08:29;;;;;;;;;;;;;;;28.65;40.85;100872.76;103015;1284;62068;-82
2023/07/11 02:10:54;;;;;;;;;;;;;;;28.64;40.86;100874.25;103011;1284;63085;-82
2023/07/11 02:13:20;;;;;;;;;;;;;;;28.64;40.71;100873.16;103082;1284;67876;-82
2023/07/11 02:15:45;;;;;;;;;;;;;;;28.64;40.80;100871.01;102983;1284;62206;-82
2023/07/11 02:18:10;;;;;;;;;;;;;;;28.64;40.73;100869.19;102998;1285;60879;-82
2023/07/11 02:20:43;;;;;;;;;;;;;;;28.64;40.70;100873.17;102938;1284;62065;-82
2023/07/11 02:23:09;;;;;;;;;;;;;;;28.64;40.73;100875.16;103034;1284;67620;-82
2023/07/11 02:25:35;;;;;;;;;;;;;;;28.64;40.61;100875.70;102971;1284;62082;-82
2023/07/11 02:28:01;;;;;;;;;;;;;;;28.64;40.80;100876.83;102984;1285;63012;-82
2023/07/11 02:30:26;;;;;;;;;;;;;;;28.63;40.80;100873.59;102989;1290;60862;-82
2023/07/11 02:32:52;;;;;;;;;;;;;;;28.63;40.75;100868.88;103008;1284;62957;-82
2023/07/11 02:35:17;;;;;;;;;;;;;;;28.63;40.79;100864.73;103003;1284;60891;-82
2023/07/11 02:37:43;;;;;;;;;;;;;;;28.63;41.09;100868.36;103082;1285;62997;-82
2023/07/11 02:40:08;;;;;;;;;;;;;;;28.63;41.06;100867.81;102882;1285;62863;-82
2023/07/11 02:42:34;;;;;;;;;;;;;;;28.63;40.97;100871.45;102900;1284;62252;-82
2023/07/11 02:44:59;;;;;;;;;;;;;;;28.62;40.87;100868.60;102954;1284;60887;-82
2023/07/11 02:47:24;;;;;;;;;;;;;;;28.62;40.98;100871.84;103149;1284;63084;-82
2023/07/11 02:49:50;;;;;;;;;;;;;;;28.62;40.82;100870.05;102933;1287;62295;-82
2023/07/11 02:52:15;;;;;;;;;;;;;;;28.63;40.84;100863.67;103045;1284;63029;-82
2023/07/11 02:54:41;;;;;;;;;;;;;;;28.62;41.14;100862.99;102914;1284;60944;-82
2023/07/11 02:57:06;;;;;;;;;;;;;;;28.63;40.87;100863.33;102939;1285;62190;-82
2023/07/11 02:59:32;;;;;;;;;;;;;;;28.63;41.06;100863.16;102983;1284;62977;-82
2023/07/11 03:01:58;;;;;;;;;;;;;;;28.62;41.04;100860.14;103099;1288;63053;-82
2023/07/11 03:04:24;;;;;;;;;;;;;;;28.62;40.83;100861.56;102998;1285;62062;-82
2023/07/11 03:06:49;;;;;;;;;;;;;;;28.62;40.99;100860.68;102958;1285;63083;-82
2023/07/11 03:09:15;;;;;;;;;;;;;;;28.63;40.98;100860.44;103022;1284;60852;-82
2023/07/11 03:11:41;;;;;;;;;;;;;;;28.62;41.09;100849.83;103094;1284;62217;-82
2023/07/11 03:14:06;;;;;;;;;;;;;;;28.62;41.02;100849.31;102903;1285;62194;-82
2023/07/11 03:16:32;;;;;;;;;;;;;;;28.62;40.86;100852.34;103222;1285;62422;-82
2023/07/11 03:18:57;;;;;;;;;;;;;;;28.62;41.08;100854.13;103109;1284;63075;-82
2023/07/11 03:21:23;;;;;;;;;;;;;;;28.62;40.86;100851.95;103524;1285;62256;-82
2023/07/11 03:23:48;;;;;;;;;;;;;;;28.62;40.99;100853.38;103157;1285;63029;-82
2023/07/11 03:26:13;;;;;;;;;;;;;;;28.62;40.90;100850.70;103106;1284;60796;-82
2023/07/11 03:28:39;;;;;;;;;;;;;;;28.63;41.02;100854.60;103026;1284;62995;-82
2023/07/11 03:31:04;;;;;;;;;;;;;;;28.62;41.05;100851.04;103203;1284;61246;-82
2023/07/11 03:33:30;;;;;;;;;;;;;;;28.63;41.05;100851.55;103250;1284;62996;-82
2023/07/11 03:35:55;;;;;;;;;;;;;;;28.63;41.09;100841.75;103751;1285;61938;-82
2023/07/11 03:38:21;;;;;;;;;;;;;;;28.63;41.26;100844.46;103570;1284;62074;-82
2023/07/11 03:40:46;;;;;;;;;;;;;;;28.63;41.06;100845.02;103479;1284;62307;-82
2023/07/11 03:43:12;;;;;;;;;;;;;;;28.63;41.01;100843.38;103493;1284;62073;-82
2023/07/11 03:45:44;;;;;;;;;;;;;;;28.63;41.31;100850.06;103352;1284;62186;-82
2023/07/11 03:48:10;;;;;;;;;;;;;;;28.63;41.24;100845.55;103592;1285;63078;-82
2023/07/11 03:50:35;;;;;;;;;;;;;;;28.63;41.11;100852.06;103099;1284;60925;-82
2023/07/11 03:53:01;;;;;;;;;;;;;;;28.63;41.19;100854.23;103042;1289;62217;-82
2023/07/11 03:55:26;;;;;;;;;;;;;;;28.63;41.30;100859.09;102835;1285;62181;-82
2023/07/11 03:57:52;;;;;;;;;;;;;;;28.63;41.22;100864.16;103291;1284;62251;-82
2023/07/11 04:00:17;;;;;;;;;;;;;;;28.63;40.97;100861.26;103093;1284;62120;-82
2023/07/11 04:02:43;;;;;;;;;;;;;;;28.63;41.25;100853.13;103159;1284;60873;-82
2023/07/11 04:05:08;;;;;;;;;;;;;;;28.64;41.06;100852.00;103006;1284;63072;-82
2023/07/11 04:07:34;;;;;;;;;;;;;;;28.63;41.23;100856.58;103005;1284;60889;-82
2023/07/11 04:09:59;;;;;;;;;;;;;;;28.64;41.16;100859.05;102959;1284;63109;-82
2023/07/11 04:12:25;;;;;;;;;;;;;;;28.63;41.45;100862.20;103125;1284;62083;-81
2023/07/11 04:14:50;;;;;;;;;;;;;;;28.62;41.39;100863.20;102844;1284;62212;-81
2023/07/11 04:17:15;;;;;;;;;;;;;;;28.62;41.20;100864.28;102867;1286;60858;-81
2023/07/11 04:19:41;;;;;;;;;;;;;;;28.62;41.01;100875.48;103101;1283;62227;-81
2023/07/11 04:22:06;;;;;;;;;;;;;;;28.61;41.18;100869.41;103023;1284;60731;-81
2023/07/11 04:24:32;;;;;;;;;;;;;;;28.61;41.09;100860.38;103088;1284;63100;-81
2023/07/11 04:26:57;;;;;;;;;;;;;;;28.61;41.10;100854.44;103071;1284;62155;-81
2023/07/11 04:29:23;;;;;;;;;;;;;;;28.61;41.05;100854.09;102771;1286;62154;-81
2023/07/11 04:31:48;;;;;;;;;;;;;;;28.61;41.08;100856.02;102894;1288;60984;-82
2023/07/11 04:34:13;;;;;;;;;;;;;;;28.60;40.92;100861.72;102813;1286;66741;-82
2023/07/11 04:36:39;;;;;;;;;;;;;;;28.61;41.16;100867.63;102760;1286;62079;-82
2023/07/11 04:39:05;;;;;;;;;;;;;;;28.61;41.11;100869.61;102816;1290;60953;-82
2023/07/11 04:41:30;;;;;;;;;;;;;;;28.62;41.09;100866.48;102794;1286;62213;-82
2023/07/11 04:43:56;;;;;;;;;;;;;;;28.62;41.20;100865.94;103043;1286;62983;-82
2023/07/11 04:46:21;;;;;;;;;;;;;;;28.61;41.16;100861.63;102806;1288;66736;-82
2023/07/11 04:48:47;;;;;;;;;;;;;;;28.62;41.03;100861.59;102821;1286;63186;-82
2023/07/11 04:51:12;;;;;;;;;;;;;;;28.62;40.81;100862.82;102812;1286;62219;-82
2023/07/11 04:53:39;;;;;;;;;;;;;;;28.63;40.92;100867.10;102876;1290;62050;-82
2023/07/11 04:56:06;;;;;;;;;;;;;;;28.63;40.95;100872.67;102840;1286;63123;-82
2023/07/11 04:58:31;;;;;;;;;;;;;;;28.64;40.83;100870.98;102757;1287;60904;-82
2023/07/11 05:01:00;;;;;;;;;;;;;;;28.65;40.69;100870.38;103035;1284;62062;-82
2023/07/11 05:03:25;;;;;;;;;;;;;;;28.65;40.86;100874.73;103361;1286;60876;-82
2023/07/11 05:05:51;;;;;;;;;;;;;;;28.65;40.78;100874.34;103442;1283;62237;-81
2023/07/11 05:08:16;;;;;;;;;;;;;;;28.66;40.78;100876.59;103617;1284;60857;-81
2023/07/11 05:11:01;;;;;;;;;;;;;;;28.65;40.72;100876.99;103433;1284;62957;-81
2023/07/11 05:13:27;;;;;;;;;;;;;;;28.66;40.56;100877.99;103781;1284;62077;-81
2023/07/11 05:15:58;;;;;;;;;;;;;;;28.66;40.61;100876.36;103445;1284;62119;-81
2023/07/11 05:18:23;;;;;;;;;;;;;;;28.67;40.46;100874.54;103509;1284;68811;-81
2023/07/11 05:20:52;;;;;;;;;;;;;;;28.67;40.66;100868.20;103832;1284;62169;-81
2023/07/11 05:23:17;;;;;;;;;;;;;;;28.67;40.67;100866.73;103361;1285;62858;-81
2023/07/11 05:25:43;;;;;;;;;;;;;;;28.67;40.53;100866.23;103805;1284;60974;-81
2023/07/11 05:28:09;;;;;;;;;;;;;;;28.67;40.61;100872.34;103795;1283;63138;-81
2023/07/11 05:30:37;;;;;;;;;;;;;;;28.67;40.53;100877.90;103391;1284;62253;-81
2023/07/11 05:33:02;;;;;;;;;;;;;;;28.67;40.39;100887.48;103357;1286;62037;-81
2023/07/11 05:38:35;;;;;;;;;;;;;;;28.68;40.54;100889.27;103225;1288;67518;-81
2023/07/11 05:41:01;;;;;;;;;;;;;;;28.68;40.44;100886.86;103127;1288;62299;-81
2023/07/11 05:43:26;;;;;;;;;;;;;;;28.68;40.20;100890.10;103193;1288;62161;-82
2023/07/11 05:45:52;;;;;;;;;;;;;;;28.69;40.26;100888.80;103798;1288;62277;-82
2023/07/11 05:48:17;;;;;;;;;;;;;;;28.68;40.39;100888.13;102773;1292;61359;-82
2023/07/11 05:50:42;;;;;;;;;;;;;;;28.68;40.11;100889.41;103348;1293;63173;-82
2023/07/11 05:53:08;;;;;;;;;;;;;;;28.68;40.25;100890.34;103144;1288;61043;-81
2023/07/11 05:55:33;;;;;;;;;;;;;;;28.68;40.14;100889.41;103382;1291;62243;-82
2023/07/11 05:57:59;;;;;;;;;;;;;;;28.68;40.17;100892.30;103212;1288;62179;-82
2023/07/11 06:00:24;;;;;;;;;;;;;;;28.68;39.98;100889.98;103848;1289;63051;-82
2023/07/11 06:02:50;;;;;;;;;;;;;;;28.67;40.04;100889.52;103608;1293;62194;-82
2023/07/11 06:05:15;;;;;;;;;;;;;;;28.67;39.83;100887.17;104013;1289;63397;-82
2023/07/11 06:07:41;;;;;;;;;;;;;;;28.67;39.87;100887.17;103777;1289;62213;-82
2023/07/11 06:10:06;;;;;;;;;;;;;;;28.68;39.86;100891.44;103927;1288;61580;-81
2023/07/11 06:12:33;;;;;;;;;;;;;;;28.68;40.00;100897.42;103818;1288;62330;-82
2023/07/11 06:14:58;;;;;;;;;;;;;;;28.68;39.91;100898.67;103827;1285;67334;-82
2023/07/11 06:17:24;;;;;;;;;;;;;;;28.68;39.93;100896.64;104457;1284;61995;-81
2023/07/11 06:19:50;;;;;;;;;;;;;;;28.68;39.92;100896.24;104148;1287;62171;-81
2023/07/11 06:22:15;;;;;;;;;;;;;;;28.69;39.87;100895.46;103863;1284;62218;-81
2023/07/11 06:24:41;;;;;;;;;;;;;;;28.69;39.80;100898.41;103641;1284;62186;-81
2023/07/11 06:27:06;;;;;;;;;;;;;;;28.69;39.66;100900.90;103316;1285;66630;-81
2023/07/11 06:29:32;;;;;;;;;;;;;;;28.69;39.68;100896.14;103108;1284;60983;-81
2023/07/11 06:31:57;;;;;;;;;;;;;;;28.69;39.77;100891.63;103113;1286;60807;-81
2023/07/11 06:34:22;;;;;;;;;;;;;;;28.70;39.81;100887.92;103332;1284;62880;-81
2023/07/11 06:36:48;;;;;;;;;;;;;;;28.69;39.59;100884.73;103428;1284;60857;-81
2023/07/11 06:39:14;;;;;;;;;;;;;;;28.69;39.65;100889.98;103643;1284;62207;-81
2023/07/11 06:41:40;;;;;;;;;;;;;;;28.69;39.67;100888.58;103685;1284;62199;-81
2023/07/11 06:44:08;;;;;;;;;;;;;;;28.69;39.49;100888.37;103485;1284;60777;-81
2023/07/11 06:46:34;;;;;;;;;;;;;;;28.70;39.61;100884.10;103830;1284;63110;-81
2023/07/11 06:48:59;;;;;;;;;;;;;;;28.71;39.65;100883.87;104002;1286;62265;-81
2023/07/11 06:51:25;;;;;;;;;;;;;;;28.71;39.55;100876.58;104314;1286;60337;-82
2023/07/11 06:53:50;;;;;;;;;;;;;;;28.71;39.59;100872.23;104069;1286;60766;-82
2023/07/11 06:56:16;;;;;;;;;;;;;;;28.71;39.50;100868.83;103696;1285;62155;-82
2023/07/11 06:58:41;;;;;;;;;;;;;;;28.71;39.35;100865.77;104190;1284;60938;-82
2023/07/11 07:01:07;;;;;;;;;;;;;;;28.71;39.40;100863.06;104366;1284;60858;-82
2023/07/11 07:03:32;;;;;;;;;;;;;;;28.70;39.34;100855.31;103977;1284;60937;-82
2023/07/11 07:06:00;;;;;;;;;;;;;;;28.71;39.39;100857.08;103906;1284;62263;-82
2023/07/11 07:08:26;;;;;;;;;;;;;;;28.71;39.20;100860.81;103322;1284;936378;-82
2023/07/11 07:10:51;;;;;;;;;;;;;;;28.72;39.22;100856.34;103999;1284;60713;-82
2023/07/11 07:13:17;;;;;;;;;;;;;;;28.73;39.21;100856.85;103887;1284;62150;-82
2023/07/11 07:15:46;;;;;;;;;;;;;;;28.74;39.28;100859.50;104078;1284;62144;-82
2023/07/11 07:18:11;;;;;;;;;;;;;;;28.74;39.16;100861.95;104342;1284;62986;-82
2023/07/11 07:20:38;;;;;;;;;;;;;;;28.75;39.19;100855.75;103939;1287;62066;-82
2023/07/11 07:23:04;;;;;;;;;;;;;;;28.75;39.07;100850.79;103809;1284;62076;-82
2023/07/11 07:25:29;;;;;;;;;;;;;;;28.76;39.02;100848.73;103819;1284;63027;-81
2023/07/11 07:27:55;;;;;;;;;;;;;;;28.76;38.91;100851.61;103872;1284;62327;-81
2023/07/11 07:30:20;;;;;;;;;;;;;;;28.76;38.81;100850.15;104231;1284;63947;-81
2023/07/11 07:32:46;;;;;;;;;;;;;;;28.76;38.96;100841.48;103996;1289;63040;-82
2023/07/11 07:35:11;;;;;;;;;;;;;;;28.76;38.86;100838.02;104239;1284;62152;-82
2023/07/11 07:37:36;;;;;;;;;;;;;;;28.77;38.63;100835.25;104427;1284;62321;-82
2023/07/11 07:40:02;;;;;;;;;;;;;;;28.77;38.62;100830.67;104404;1284;60266;-82
2023/07/11 07:42:28;;;;;;;;;;;;;;;28.78;38.59;100829.04;104186;1284;63729;-82
2023/07/11 07:44:55;;;;;;;;;;;;;;;28.77;38.68;100823.27;104073;1284;62341;-82
2023/07/11 07:47:20;;;;;;;;;;;;;;;28.77;38.60;100817.52;104309;1284;62061;-82
2023/07/11 07:49:46;;;;;;;;;;;;;;;28.77;38.58;100814.06;104220;1284;62001;-82
2023/07/11 07:52:11;;;;;;;;;;;;;;;28.77;38.61;100810.26;104492;1284;62201;-82
2023/07/11 07:54:37;;;;;;;;;;;;;;;28.78;38.34;100810.20;104561;1284;62894;-82
2023/07/11 07:57:02;;;;;;;;;;;;;;;28.77;38.31;100810.39;104024;1288;66643;-82
2023/07/11 07:59:28;;;;;;;;;;;;;;;28.79;38.40;100810.98;103627;1284;62160;-82
2023/07/11 08:01:53;;;;;;;;;;;;;;;28.79;38.33;100811.90;103970;1284;62063;-82
2023/07/11 08:04:18;;;;;;;;;;;;;;;28.80;38.33;100810.66;103490;1287;63069;-82
2023/07/11 08:06:44;;;;;;;;;;;;;;;28.80;38.56;100811.71;104281;1286;62074;-82
2023/07/11 08:09:09;;;;;;;;;;;;;;;28.82;38.36;100807.23;104867;1284;60813;-82
2023/07/11 08:11:35;;;;;;;;;;;;;;;28.81;38.17;100808.51;104129;1284;62174;-82
2023/07/11 08:14:00;;;;;;;;;;;;;;;28.83;38.08;100812.36;104185;1284;60868;-82
2023/07/11 08:16:26;;;;;;;;;;;;;;;28.83;38.06;100811.42;104392;1284;60890;-82
2023/07/11 08:18:54;;;;;;;;;;;;;;;28.84;37.89;100803.72;104381;1284;62214;-82
2023/07/11 08:21:20;;;;;;;;;;;;;;;28.85;38.18;100809.21;103958;1284;66485;-82
2023/07/11 08:23:45;;;;;;;;;;;;;;;28.85;37.87;100804.16;103795;1284;60192;-82
2023/07/11 08:26:11;;;;;;;;;;;;;;;28.86;37.78;100803.17;103915;1285;60863;-82
2023/07/11 08:28:36;;;;;;;;;;;;;;;28.86;37.89;100802.79;104264;1284;62196;-82
2023/07/11 08:31:05;;;;;;;;;;;;;;;28.86;37.60;100794.80;103994;1284;60972;-82
2023/07/11 08:33:31;;;;;;;;;;;;;;;28.88;37.59;100798.64;103928;1284;66497;-82
2023/07/11 08:35:56;;;;;;;;;;;;;;;28.89;37.51;100791.78;103685;1284;62937;-82
2023/07/11 08:38:22;;;;;;;;;;;;;;;28.89;37.39;100786.11;103970;1284;62295;-81
2023/07/11 08:40:48;;;;;;;;;;;;;;;28.89;37.63;100786.14;104223;1284;60394;-81
2023/07/11 08:43:21;;;;;;;;;;;;;;;28.91;37.61;100786.91;103881;1284;62177;-81
2023/07/11 08:45:48;;;;;;;;;;;;;;;28.91;37.42;100783.92;104116;1287;66609;-81
2023/07/11 08:48:22;;;;;;;;;;;;;;;28.93;37.38;100778.55;104004;1284;63169;-81
2023/07/11 08:50:47;;;;;;;;;;;;;;;28.93;37.38;100776.50;104186;1285;62001;-81
2023/07/11 08:53:13;;;;;;;;;;;;;;;28.93;37.42;100776.67;103432;1284;62189;-83
2023/07/11 08:55:41;;;;;;;;;;;;;;;28.93;37.36;100774.29;103289;1284;63015;-82
2023/07/11 08:58:10;;;;;;;;;;;;;;;28.94;37.28;100774.23;103467;1285;62212;-82
2023/07/11 09:00:35;;;;;;;;;;;;;;;28.95;37.19;100775.07;103581;1285;62058;-82
2023/07/11 09:03:06;;;;;;;;;;;;;;;28.94;37.36;100772.59;104088;1285;62190;-82
2023/07/11 09:05:32;;;;;;;;;;;;;;;28.95;37.35;100770.91;103810;1287;67602;-82
2023/07/11 09:07:58;;;;;;;;;;;;;;;28.94;37.17;100765.36;103534;1284;63131;-82
2023/07/11 09:10:29;;;;;;;;;;;;;;;28.94;37.34;100759.00;103637;1288;60720;-82
2023/07/11 09:12:58;;;;;;;;;;;;;;;28.95;37.22;100764.16;103482;1284;64139;-82
2023/07/11 09:15:35;;;;;;;;;;;;;;;28.96;37.16;100773.52;103460;1286;66441;-82
2023/07/11 09:18:16;;;;;;;;;;;;;;;28.96;37.17;100776.40;103394;1286;60728;-82
2023/07/11 09:20:44;;;;;;;;;;;;;;;28.96;37.27;100779.29;103798;1286;62179;-82
2023/07/11 09:23:13;;;;;;;;;;;;;;;28.96;37.22;100777.48;104485;1284;65158;-82
2023/07/11 09:25:42;;;;;;;;;;;;;;;28.97;37.27;100782.11;104034;1285;66732;-82
2023/07/11 09:28:25;;;;;;;;;;;;;;;28.98;37.05;100785.61;103750;1287;62187;-82
2023/07/11 09:30:59;;;;;;;;;;;;;;;28.99;37.16;100778.86;103977;1284;62863;-82
2023/07/11 09:33:29;;;;;;;;;;;;;;;29.00;37.04;100780.88;103503;1284;73667;-82
2023/07/11 09:35:54;;;;;;;;;;;;;;;29.01;37.10;100779.17;103266;1284;67667;-82
2023/07/11 09:38:28;;;;;;;;;;;;;;;29.01;37.02;100770.48;103152;1284;62190;-82
2023/07/11 09:40:55;;;;;;;;;;;;;;;29.02;37.07;100772.70;103216;1284;62154;-82
2023/07/11 09:43:21;;;;;;;;;;;;;;;29.03;37.04;100772.91;104053;1284;64862;-81
2023/07/11 09:45:47;;;;;;;;;;;;;;;29.04;37.08;100763.39;103621;1284;62195;-81
2023/07/11 09:48:14;;;;;;;;;;;;;;;29.05;37.15;100759.12;103855;1286;62336;-82
2023/07/11 09:50:49;;;;;;;;;;;;;;;29.06;36.96;100757.08;103799;1285;62045;-82
2023/07/11 09:53:19;;;;;;;;;;;;;;;29.05;37.17;100754.56;103325;1284;63712;-82
2023/07/11 09:55:45;;;;;;;;;;;;;;;29.05;37.16;100747.16;103361;1284;67630;-82
2023/07/11 09:58:15;;;;;;;;;;;;;;;29.05;37.05;100744.80;103094;1285;62194;-82
2023/07/11 10:00:45;;;;;;;;;;;;;;;29.04;37.13;100742.16;103486;1284;62176;-82
2023/07/11 10:03:14;;;;;;;;;;;;;;;29.04;37.16;100737.67;103569;1284;64917;-82
2023/07/11 10:05:41;;;;;;;;;;;;;;;29.03;37.24;100734.86;104266;1285;67645;-82
2023/07/11 10:08:13;;;;;;;;;;;;;;;29.03;37.30;100737.06;103871;1284;60972;-82
2023/07/11 10:10:44;;;;;;;;;;;;;;;29.02;37.34;100739.11;103523;1284;62188;-82
2023/07/11 10:13:10;;;;;;;;;;;;;;;29.02;37.29;100734.79;103510;1285;64564;-82
2023/07/11 10:15:35;;;;;;;;;;;;;;;29.02;37.38;100739.51;103369;1284;61847;-82
2023/07/11 10:18:01;;;;;;;;;;;;;;;29.03;37.28;100738.91;103896;1285;60900;-82
2023/07/11 10:20:26;;;;;;;;;;;;;;;29.02;37.20;100733.16;103217;1286;60828;-82
2023/07/11 10:22:52;;;;;;;;;;;;;;;29.02;37.14;100728.06;103241;1284;62262;-82
2023/07/11 10:25:22;;;;;;;;;;;;;;;29.02;37.32;100719.42;103318;1284;60788;-82
2023/07/11 10:27:58;;;;;;;;;;;;;;;29.02;37.26;100717.44;103390;1288;65556;-82
2023/07/11 10:30:25;;;;;;;;;;;;;;;29.02;37.26;100714.91;104132;1282;62169;-82
2023/07/11 10:32:57;;;;;;;;;;;;;;;29.02;37.33;100708.77;105364;1283;60146;-82
2023/07/11 10:35:23;;;;;;;;;;;;;;;29.02;37.49;100706.73;103718;1288;63971;-82
2023/07/11 10:37:53;;;;;;;;;;;;;;;29.02;37.32;100707.27;103777;1287;62164;-82
2023/07/11 10:40:21;;;;;;;;;;;;;;;29.02;37.37;100709.08;104233;1286;62199;-82
2023/07/11 10:42:59;;;;;;;;;;;;;;;29.02;37.33;100703.61;104501;1285;62276;-82
2023/07/11 10:45:25;;;;;;;;;;;;;;;29.03;37.19;100699.61;103700;1286;64880;-82
2023/07/11 10:48:04;;;;;;;;;;;;;;;29.04;37.42;100700.96;103369;1286;66446;-82
2023/07/11 10:50:37;;;;;;;;;;;;;;;29.04;37.43;100701.43;103469;1283;62967;-82
2023/07/11 10:53:06;;;;;;;;;;;;;;;29.04;37.42;100703.23;103379;1283;62191;-82
2023/07/11 10:55:34;;;;;;;;;;;;;;;29.04;37.46;100698.31;103602;1284;64798;-82
2023/07/11 10:58:00;;;;;;;;;;;;;;;29.04;37.35;100694.51;103159;1287;67871;-82
2023/07/11 11:00:31;;;;;;;;;;;;;;;29.05;37.27;100690.84;103462;1287;63344;-82
2023/07/11 11:03:16;;;;;;;;;;;;;;;29.05;37.34;100683.39;103805;1287;62137;-82
2023/07/11 11:05:50;;;;;;;;;;;;;;;29.05;37.39;100667.59;103383;1286;63798;-82
2023/07/11 11:08:17;;;;;;;;;;;;;;;29.05;37.49;100658.23;103376;1288;65559;-82
2023/07/11 11:10:47;;;;;;;;;;;;;;;29.04;37.54;100654.83;103515;1283;62168;-82
2023/07/11 11:13:12;;;;;;;;;;;;;;;29.05;37.67;100657.65;103395;1284;62131;-82
2023/07/11 11:15:42;;;;;;;;;;;;;;;29.05;37.76;100657.71;103297;1284;60100;-82
2023/07/11 11:18:21;;;;;;;;;;;;;;;29.04;37.67;100656.13;103899;1286;66440;-82
2023/07/11 11:20:56;;;;;;;;;;;;;;;29.04;37.86;100653.98;103964;1284;60174;-81
2023/07/11 11:23:24;;;;;;;;;;;;;;;29.04;37.85;100652.38;103967;1284;62580;-82
2023/07/11 11:26:05;;;;;;;;;;;;;;;29.04;37.98;100649.29;103945;1284;64825;-82
2023/07/11 11:28:43;;;;;;;;;;;;;;;29.04;38.04;100648.20;103515;1284;66427;-82
2023/07/11 11:31:11;;;;;;;;;;;;;;;29.04;37.95;100646.91;103480;1284;60868;-82
2023/07/11 11:33:55;;;;;;;;;;;;;;;29.04;37.90;100637.27;103394;1284;62177;-82
2023/07/11 11:36:31;;;;;;;;;;;;;;;29.05;37.88;100635.77;103416;1284;63802;-82
2023/07/11 11:39:15;;;;;;;;;;;;;;;29.04;37.92;100636.35;103464;1284;67657;-82
2023/07/11 11:41:42;;;;;;;;;;;;;;;29.04;38.10;100633.27;103543;1284;62209;-82
2023/07/11 11:44:10;;;;;;;;;;;;;;;29.05;38.01;100624.20;103597;1284;62973;-82
2023/07/11 11:46:35;;;;;;;;;;;;;;;29.05;37.97;100619.27;103250;1285;66033;-82
2023/07/11 11:49:01;;;;;;;;;;;;;;;29.05;38.01;100616.17;103431;1284;63071;-82
2023/07/11 11:51:26;;;;;;;;;;;;;;;29.05;37.94;100615.05;103609;1284;60942;-82
2023/07/11 11:54:06;;;;;;;;;;;;;;;29.06;38.06;100611.35;103617;1284;62213;-82
2023/07/11 11:56:33;;;;;;;;;;;;;;;29.06;38.08;100603.92;103170;1287;64805;-82
2023/07/11 11:59:00;;;;;;;;;;;;;;;29.06;38.08;100597.90;103492;1284;67807;-82
2023/07/11 12:01:48;;;;;;;;;;;;;;;29.07;38.16;100594.98;103548;1285;62596;-82
2023/07/11 12:04:29;;;;;;;;;;;;;;;29.07;38.30;100588.42;103403;1284;62325;-82
2023/07/11 12:07:05;;;;;;;;;;;;;;;29.07;38.20;100584.38;103480;1284;63711;-82
2023/07/11 12:09:33;;;;;;;;;;;;;;;29.08;38.22;100579.59;103549;1287;66727;-82
2023/07/11 12:12:08;;;;;;;;;;;;;;;29.09;38.29;100576.81;103474;1284;62105;-82
2023/07/11 12:14:34;;;;;;;;;;;;;;;29.09;38.20;100570.97;103562;1285;60954;-82
2023/07/11 12:16:59;;;;;;;;;;;;;;;29.10;38.16;100569.48;103276;1284;62278;-82
2023/07/11 12:19:37;;;;;;;;;;;;;;;29.10;38.26;100565.42;103444;1287;60940;-82
2023/07/11 12:22:05;;;;;;;;;;;;;;;29.11;38.30;100567.71;103563;1284;62264;-82
2023/07/11 12:24:33;;;;;;;;;;;;;;;29.11;38.30;100567.16;103851;1288;62157;-82
2023/07/11 12:27:08;;;;;;;;;;;;;;;29.11;38.43;100565.88;103828;1283;64837;-82
2023/07/11 12:29:34;;;;;;;;;;;;;;;29.11;38.40;100562.83;103561;1284;67622;-82